sensor_id;sensor_type;location;lat;lon;timestamp;P1;durP1;ratioP1;P2;durP2;ratioP2
21192;SDS011;10754;51.106;7.164;2023-06-22T00:01:18;2.25;;;2.05;;
21192;SDS011;10754;51.106;7.164;2023-06-22T00:03:44;2.10;;;1.90;;
21192;SDS011;10754;51.106;7.164;2023-06-22T00:06:10;2.72;;;2.42;;
21192;SDS011;10754;51.106;7.164;2023-06-22T00:08:35;2.20;;;2.00;;
21192;SDS011;10754;51.106;7.164;2023-06-22T00:11:01;2.63;;;2.42;;
21192;SDS011;10754;51.106;7.164;2023-06-22T00:13:26;3.65;;;2.63;;
21192;SDS011;10754;51.106;7.164;2023-06-22T00:15:52;2.63;;;2.42;;
21192;SDS011;10754;51.106;7.164;2023-06-22T00:18:17;2.30;;;2.10;;
21192;SDS011;10754;51.106;7.164;2023-06-22T00:20:43;3.03;;;2.10;;
21192;SDS011;10754;51.106;7.164;2023-06-22T00:23:10;2.45;;;2.13;;
21192;SDS011;10754;51.106;7.164;2023-06-22T00:25:40;2.20;;;2.00;;
21192;SDS011;10754;51.106;7.164;2023-06-22T00:28:05;3.67;;;2.50;;
21192;SDS011;10754;51.106;7.164;2023-06-22T00:30:32;2.42;;;2.22;;
21192;SDS011;10754;51.106;7.164;2023-06-22T00:32:58;2.10;;;1.98;;
21192;SDS011;10754;51.106;7.164;2023-06-22T00:35:24;3.03;;;2.20;;
21192;SDS011;10754;51.106;7.164;2023-06-22T00:37:57;2.33;;;2.13;;
21192;SDS011;10754;51.106;7.164;2023-06-22T00:40:25;2.45;;;2.00;;
21192;SDS011;10754;51.106;7.164;2023-06-22T00:42:57;1.80;;;1.70;;
21192;SDS011;10754;51.106;7.164;2023-06-22T00:45:25;2.10;;;1.90;;
21192;SDS011;10754;51.106;7.164;2023-06-22T00:47:51;1.88;;;1.77;;
21192;SDS011;10754;51.106;7.164;2023-06-22T00:50:21;2.20;;;2.00;;
21192;SDS011;10754;51.106;7.164;2023-06-22T00:52:49;2.30;;;2.00;;
21192;SDS011;10754;51.106;7.164;2023-06-22T00:55:17;2.30;;;2.08;;
21192;SDS011;10754;51.106;7.164;2023-06-22T00:57:47;2.20;;;2.00;;
21192;SDS011;10754;51.106;7.164;2023-06-22T01:00:13;2.20;;;1.77;;
21192;SDS011;10754;51.106;7.164;2023-06-22T01:02:41;2.15;;;2.00;;
21192;SDS011;10754;51.106;7.164;2023-06-22T01:05:10;2.85;;;2.20;;
21192;SDS011;10754;51.106;7.164;2023-06-22T01:07:39;2.05;;;1.85;;
21192;SDS011;10754;51.106;7.164;2023-06-22T01:10:16;2.65;;;1.90;;
21192;SDS011;10754;51.106;7.164;2023-06-22T01:12:51;2.15;;;1.90;;
21192;SDS011;10754;51.106;7.164;2023-06-22T01:15:25;1.95;;;1.73;;
21192;SDS011;10754;51.106;7.164;2023-06-22T01:17:58;2.72;;;1.85;;
21192;SDS011;10754;51.106;7.164;2023-06-22T01:20:27;2.22;;;2.00;;
21192;SDS011;10754;51.106;7.164;2023-06-22T01:25:43;2.10;;;1.90;;
21192;SDS011;10754;51.106;7.164;2023-06-22T01:28:24;3.33;;;1.92;;
21192;SDS011;10754;51.106;7.164;2023-06-22T01:31:07;2.13;;;1.80;;
21192;SDS011;10754;51.106;7.164;2023-06-22T01:33:37;3.67;;;1.80;;
21192;SDS011;10754;51.106;7.164;2023-06-22T01:36:04;2.20;;;2.00;;
21192;SDS011;10754;51.106;7.164;2023-06-22T01:38:31;1.67;;;1.55;;
21192;SDS011;10754;51.106;7.164;2023-06-22T01:40:58;3.00;;;1.50;;
21192;SDS011;10754;51.106;7.164;2023-06-22T01:43:25;2.28;;;1.88;;
21192;SDS011;10754;51.106;7.164;2023-06-22T01:45:51;2.45;;;2.00;;
21192;SDS011;10754;51.106;7.164;2023-06-22T01:48:22;1.73;;;1.63;;
21192;SDS011;10754;51.106;7.164;2023-06-22T01:50:48;1.60;;;1.50;;
21192;SDS011;10754;51.106;7.164;2023-06-22T01:53:14;1.80;;;1.70;;
21192;SDS011;10754;51.106;7.164;2023-06-22T01:55:39;2.97;;;1.48;;
21192;SDS011;10754;51.106;7.164;2023-06-22T01:58:05;1.88;;;1.77;;
21192;SDS011;10754;51.106;7.164;2023-06-22T02:00:34;1.60;;;1.50;;
21192;SDS011;10754;51.106;7.164;2023-06-22T02:03:23;2.05;;;1.85;;
21192;SDS011;10754;51.106;7.164;2023-06-22T02:05:56;2.95;;;2.10;;
21192;SDS011;10754;51.106;7.164;2023-06-22T02:08:32;2.10;;;1.58;;
21192;SDS011;10754;51.106;7.164;2023-06-22T02:11:06;1.80;;;1.70;;
21192;SDS011;10754;51.106;7.164;2023-06-22T02:13:33;2.17;;;2.00;;
21192;SDS011;10754;51.106;7.164;2023-06-22T02:16:01;2.25;;;1.98;;
21192;SDS011;10754;51.106;7.164;2023-06-22T02:18:27;2.17;;;1.92;;
21192;SDS011;10754;51.106;7.164;2023-06-22T02:20:53;3.22;;;1.92;;
21192;SDS011;10754;51.106;7.164;2023-06-22T02:23:18;1.60;;;1.48;;
21192;SDS011;10754;51.106;7.164;2023-06-22T02:25:44;2.13;;;1.67;;
21192;SDS011;10754;51.106;7.164;2023-06-22T02:28:10;1.92;;;1.70;;
21192;SDS011;10754;51.106;7.164;2023-06-22T02:30:35;2.00;;;1.85;;
21192;SDS011;10754;51.106;7.164;2023-06-22T02:33:01;2.25;;;1.90;;
21192;SDS011;10754;51.106;7.164;2023-06-22T02:35:29;1.90;;;1.70;;
21192;SDS011;10754;51.106;7.164;2023-06-22T02:37:56;2.10;;;1.80;;
21192;SDS011;10754;51.106;7.164;2023-06-22T02:40:23;2.38;;;1.88;;
21192;SDS011;10754;51.106;7.164;2023-06-22T02:42:48;3.28;;;1.95;;
21192;SDS011;10754;51.106;7.164;2023-06-22T02:45:14;2.40;;;1.60;;
21192;SDS011;10754;51.106;7.164;2023-06-22T02:47:39;1.70;;;1.60;;
21192;SDS011;10754;51.106;7.164;2023-06-22T02:50:05;2.42;;;1.88;;
21192;SDS011;10754;51.106;7.164;2023-06-22T02:52:30;1.95;;;1.70;;
21192;SDS011;10754;51.106;7.164;2023-06-22T02:54:56;1.70;;;1.60;;
21192;SDS011;10754;51.106;7.164;2023-06-22T02:57:21;1.80;;;1.67;;
21192;SDS011;10754;51.106;7.164;2023-06-22T02:59:47;2.85;;;1.80;;
21192;SDS011;10754;51.106;7.164;2023-06-22T03:02:12;2.47;;;1.80;;
21192;SDS011;10754;51.106;7.164;2023-06-22T03:04:38;2.55;;;1.92;;
21192;SDS011;10754;51.106;7.164;2023-06-22T03:07:03;1.80;;;1.65;;
21192;SDS011;10754;51.106;7.164;2023-06-22T03:09:29;2.60;;;1.70;;
21192;SDS011;10754;51.106;7.164;2023-06-22T03:11:55;2.13;;;1.92;;
21192;SDS011;10754;51.106;7.164;2023-06-22T03:14:20;2.17;;;1.73;;
21192;SDS011;10754;51.106;7.164;2023-06-22T03:16:46;2.45;;;1.70;;
21192;SDS011;10754;51.106;7.164;2023-06-22T03:19:12;2.10;;;1.90;;
21192;SDS011;10754;51.106;7.164;2023-06-22T03:21:38;2.28;;;1.92;;
21192;SDS011;10754;51.106;7.164;2023-06-22T03:24:04;2.65;;;1.70;;
21192;SDS011;10754;51.106;7.164;2023-06-22T03:26:30;2.20;;;2.00;;
21192;SDS011;10754;51.106;7.164;2023-06-22T03:28:55;2.10;;;1.95;;
21192;SDS011;10754;51.106;7.164;2023-06-22T03:31:21;3.25;;;2.08;;
21192;SDS011;10754;51.106;7.164;2023-06-22T03:33:48;2.70;;;2.42;;
21192;SDS011;10754;51.106;7.164;2023-06-22T03:36:16;2.30;;;1.77;;
21192;SDS011;10754;51.106;7.164;2023-06-22T03:38:46;2.35;;;2.15;;
21192;SDS011;10754;51.106;7.164;2023-06-22T03:41:12;2.13;;;1.80;;
21192;SDS011;10754;51.106;7.164;2023-06-22T03:43:38;1.73;;;1.63;;
21192;SDS011;10754;51.106;7.164;2023-06-22T03:46:04;2.28;;;2.05;;
21192;SDS011;10754;51.106;7.164;2023-06-22T03:48:30;2.20;;;1.80;;
21192;SDS011;10754;51.106;7.164;2023-06-22T03:50:55;2.47;;;2.13;;
21192;SDS011;10754;51.106;7.164;2023-06-22T03:53:21;1.73;;;1.63;;
21192;SDS011;10754;51.106;7.164;2023-06-22T03:55:50;1.95;;;1.83;;
21192;SDS011;10754;51.106;7.164;2023-06-22T03:58:16;2.38;;;2.00;;
21192;SDS011;10754;51.106;7.164;2023-06-22T04:00:43;2.15;;;1.95;;
21192;SDS011;10754;51.106;7.164;2023-06-22T04:03:10;2.17;;;1.98;;
21192;SDS011;10754;51.106;7.164;2023-06-22T04:05:36;2.78;;;2.17;;
21192;SDS011;10754;51.106;7.164;2023-06-22T04:08:03;2.17;;;1.75;;
21192;SDS011;10754;51.106;7.164;2023-06-22T04:10:29;3.03;;;2.03;;
21192;SDS011;10754;51.106;7.164;2023-06-22T04:12:55;2.75;;;2.05;;
21192;SDS011;10754;51.106;7.164;2023-06-22T04:15:21;3.88;;;2.20;;
21192;SDS011;10754;51.106;7.164;2023-06-22T04:17:46;2.50;;;2.03;;
21192;SDS011;10754;51.106;7.164;2023-06-22T04:20:12;2.15;;;1.80;;
21192;SDS011;10754;51.106;7.164;2023-06-22T04:22:37;2.70;;;1.95;;
21192;SDS011;10754;51.106;7.164;2023-06-22T04:25:03;3.15;;;2.47;;
21192;SDS011;10754;51.106;7.164;2023-06-22T04:27:29;2.72;;;2.47;;
21192;SDS011;10754;51.106;7.164;2023-06-22T04:29:54;2.15;;;1.95;;
21192;SDS011;10754;51.106;7.164;2023-06-22T04:32:19;2.55;;;2.17;;
21192;SDS011;10754;51.106;7.164;2023-06-22T04:34:45;4.38;;;2.40;;
21192;SDS011;10754;51.106;7.164;2023-06-22T04:37:10;2.97;;;2.60;;
21192;SDS011;10754;51.106;7.164;2023-06-22T04:39:40;2.58;;;2.25;;
21192;SDS011;10754;51.106;7.164;2023-06-22T04:42:06;2.85;;;2.53;;
21192;SDS011;10754;51.106;7.164;2023-06-22T04:44:32;4.85;;;2.70;;
21192;SDS011;10754;51.106;7.164;2023-06-22T04:46:58;2.78;;;2.55;;
21192;SDS011;10754;51.106;7.164;2023-06-22T04:49:33;2.97;;;2.78;;
21192;SDS011;10754;51.106;7.164;2023-06-22T04:52:03;3.25;;;2.97;;
21192;SDS011;10754;51.106;7.164;2023-06-22T04:54:30;3.13;;;2.83;;
21192;SDS011;10754;51.106;7.164;2023-06-22T04:56:59;3.35;;;2.97;;
21192;SDS011;10754;51.106;7.164;2023-06-22T04:59:29;3.30;;;3.05;;
21192;SDS011;10754;51.106;7.164;2023-06-22T05:01:59;3.20;;;2.90;;
21192;SDS011;10754;51.106;7.164;2023-06-22T05:04:26;3.95;;;3.22;;
21192;SDS011;10754;51.106;7.164;2023-06-22T05:07:00;3.55;;;3.25;;
21192;SDS011;10754;51.106;7.164;2023-06-22T05:09:26;4.50;;;3.92;;
21192;SDS011;10754;51.106;7.164;2023-06-22T05:11:52;4.05;;;3.60;;
21192;SDS011;10754;51.106;7.164;2023-06-22T05:14:18;3.75;;;3.40;;
21192;SDS011;10754;51.106;7.164;2023-06-22T05:16:44;3.90;;;3.60;;
21192;SDS011;10754;51.106;7.164;2023-06-22T05:19:10;3.92;;;3.53;;
21192;SDS011;10754;51.106;7.164;2023-06-22T05:21:36;3.95;;;3.63;;
21192;SDS011;10754;51.106;7.164;2023-06-22T05:24:02;5.28;;;4.55;;
21192;SDS011;10754;51.106;7.164;2023-06-22T05:26:31;3.90;;;3.60;;
21192;SDS011;10754;51.106;7.164;2023-06-22T05:28:59;4.18;;;3.78;;
21192;SDS011;10754;51.106;7.164;2023-06-22T05:31:25;3.75;;;3.45;;
21192;SDS011;10754;51.106;7.164;2023-06-22T05:33:52;3.53;;;3.20;;
21192;SDS011;10754;51.106;7.164;2023-06-22T05:36:19;3.40;;;3.20;;
21192;SDS011;10754;51.106;7.164;2023-06-22T05:38:46;3.35;;;3.10;;
21192;SDS011;10754;51.106;7.164;2023-06-22T05:41:12;4.20;;;3.20;;
21192;SDS011;10754;51.106;7.164;2023-06-22T05:43:37;4.63;;;3.38;;
21192;SDS011;10754;51.106;7.164;2023-06-22T05:46:03;4.38;;;3.90;;
21192;SDS011;10754;51.106;7.164;2023-06-22T05:48:29;4.47;;;4.10;;
21192;SDS011;10754;51.106;7.164;2023-06-22T05:50:55;4.18;;;3.88;;
21192;SDS011;10754;51.106;7.164;2023-06-22T05:53:21;4.38;;;3.95;;
21192;SDS011;10754;51.106;7.164;2023-06-22T05:55:46;4.18;;;3.53;;
21192;SDS011;10754;51.106;7.164;2023-06-22T05:58:12;4.07;;;3.78;;
21192;SDS011;10754;51.106;7.164;2023-06-22T06:00:40;3.90;;;3.60;;
21192;SDS011;10754;51.106;7.164;2023-06-22T06:03:07;3.92;;;3.63;;
21192;SDS011;10754;51.106;7.164;2023-06-22T06:05:33;3.97;;;3.67;;
21192;SDS011;10754;51.106;7.164;2023-06-22T06:08:00;4.05;;;3.75;;
21192;SDS011;10754;51.106;7.164;2023-06-22T06:10:26;4.05;;;3.70;;
21192;SDS011;10754;51.106;7.164;2023-06-22T06:12:54;4.50;;;4.10;;
21192;SDS011;10754;51.106;7.164;2023-06-22T06:15:20;3.90;;;3.60;;
21192;SDS011;10754;51.106;7.164;2023-06-22T06:17:52;4.18;;;3.78;;
21192;SDS011;10754;51.106;7.164;2023-06-22T06:20:18;4.47;;;4.05;;
21192;SDS011;10754;51.106;7.164;2023-06-22T06:22:44;3.95;;;3.65;;
21192;SDS011;10754;51.106;7.164;2023-06-22T06:25:10;3.85;;;3.55;;
21192;SDS011;10754;51.106;7.164;2023-06-22T06:27:40;4.32;;;3.92;;
21192;SDS011;10754;51.106;7.164;2023-06-22T06:30:13;3.63;;;3.35;;
21192;SDS011;10754;51.106;7.164;2023-06-22T06:32:40;3.88;;;3.58;;
21192;SDS011;10754;51.106;7.164;2023-06-22T06:35:07;3.40;;;3.10;;
21192;SDS011;10754;51.106;7.164;2023-06-22T06:37:37;4.00;;;3.70;;
21192;SDS011;10754;51.106;7.164;2023-06-22T06:40:05;4.20;;;3.90;;
21192;SDS011;10754;51.106;7.164;2023-06-22T06:42:47;4.60;;;4.13;;
21192;SDS011;10754;51.106;7.164;2023-06-22T06:45:17;4.40;;;4.00;;
21192;SDS011;10754;51.106;7.164;2023-06-22T06:47:44;4.80;;;4.40;;
21192;SDS011;10754;51.106;7.164;2023-06-22T06:50:11;4.40;;;4.10;;
21192;SDS011;10754;51.106;7.164;2023-06-22T06:52:36;5.30;;;4.07;;
21192;SDS011;10754;51.106;7.164;2023-06-22T06:55:02;4.45;;;4.05;;
21192;SDS011;10754;51.106;7.164;2023-06-22T06:57:29;4.40;;;4.10;;
21192;SDS011;10754;51.106;7.164;2023-06-22T06:59:55;4.72;;;4.10;;
21192;SDS011;10754;51.106;7.164;2023-06-22T07:02:21;4.85;;;4.45;;
21192;SDS011;10754;51.106;7.164;2023-06-22T07:04:47;4.25;;;3.95;;
21192;SDS011;10754;51.106;7.164;2023-06-22T07:07:13;4.10;;;3.78;;
21192;SDS011;10754;51.106;7.164;2023-06-22T07:09:39;5.38;;;4.97;;
21192;SDS011;10754;51.106;7.164;2023-06-22T07:12:05;5.30;;;4.82;;
21192;SDS011;10754;51.106;7.164;2023-06-22T07:14:31;4.32;;;4.03;;
21192;SDS011;10754;51.106;7.164;2023-06-22T07:16:56;5.03;;;4.43;;
21192;SDS011;10754;51.106;7.164;2023-06-22T07:19:26;4.55;;;4.25;;
21192;SDS011;10754;51.106;7.164;2023-06-22T07:21:53;4.70;;;4.40;;
21192;SDS011;10754;51.106;7.164;2023-06-22T07:24:19;4.40;;;4.00;;
21192;SDS011;10754;51.106;7.164;2023-06-22T07:26:46;5.38;;;4.45;;
21192;SDS011;10754;51.106;7.164;2023-06-22T07:29:13;4.75;;;4.38;;
21192;SDS011;10754;51.106;7.164;2023-06-22T07:31:38;4.97;;;4.60;;
21192;SDS011;10754;51.106;7.164;2023-06-22T07:34:05;7.70;;;5.05;;
21192;SDS011;10754;51.106;7.164;2023-06-22T07:36:31;4.65;;;4.35;;
21192;SDS011;10754;51.106;7.164;2023-06-22T07:38:57;5.40;;;5.00;;
21192;SDS011;10754;51.106;7.164;2023-06-22T07:41:22;5.65;;;5.03;;
21192;SDS011;10754;51.106;7.164;2023-06-22T07:43:48;5.20;;;4.80;;
21192;SDS011;10754;51.106;7.164;2023-06-22T07:46:13;4.65;;;4.30;;
21192;SDS011;10754;51.106;7.164;2023-06-22T07:48:39;4.75;;;4.30;;
21192;SDS011;10754;51.106;7.164;2023-06-22T07:51:06;4.07;;;3.78;;
21192;SDS011;10754;51.106;7.164;2023-06-22T07:53:32;4.65;;;4.25;;
21192;SDS011;10754;51.106;7.164;2023-06-22T07:55:57;5.57;;;3.83;;
21192;SDS011;10754;51.106;7.164;2023-06-22T07:58:23;4.78;;;4.38;;
21192;SDS011;10754;51.106;7.164;2023-06-22T08:00:48;4.80;;;4.40;;
21192;SDS011;10754;51.106;7.164;2023-06-22T08:03:14;4.40;;;4.10;;
21192;SDS011;10754;51.106;7.164;2023-06-22T08:05:40;4.88;;;4.25;;
21192;SDS011;10754;51.106;7.164;2023-06-22T08:08:05;3.90;;;3.60;;
21192;SDS011;10754;51.106;7.164;2023-06-22T08:10:31;4.72;;;4.43;;
21192;SDS011;10754;51.106;7.164;2023-06-22T08:12:56;4.75;;;4.30;;
21192;SDS011;10754;51.106;7.164;2023-06-22T08:15:22;4.30;;;4.00;;
21192;SDS011;10754;51.106;7.164;2023-06-22T08:17:47;4.40;;;4.10;;
21192;SDS011;10754;51.106;7.164;2023-06-22T08:20:13;4.20;;;3.80;;
21192;SDS011;10754;51.106;7.164;2023-06-22T08:22:39;4.15;;;3.85;;
21192;SDS011;10754;51.106;7.164;2023-06-22T08:25:06;4.57;;;4.18;;
21192;SDS011;10754;51.106;7.164;2023-06-22T08:27:32;4.30;;;4.00;;
21192;SDS011;10754;51.106;7.164;2023-06-22T08:29:58;3.97;;;3.67;;
21192;SDS011;10754;51.106;7.164;2023-06-22T08:32:25;4.30;;;3.83;;
21192;SDS011;10754;51.106;7.164;2023-06-22T08:34:52;4.05;;;3.67;;
21192;SDS011;10754;51.106;7.164;2023-06-22T08:37:19;4.22;;;3.92;;
21192;SDS011;10754;51.106;7.164;2023-06-22T08:39:44;4.00;;;3.70;;
21192;SDS011;10754;51.106;7.164;2023-06-22T08:42:11;4.15;;;3.85;;
21192;SDS011;10754;51.106;7.164;2023-06-22T08:44:37;4.25;;;3.95;;
21192;SDS011;10754;51.106;7.164;2023-06-22T08:47:02;4.80;;;4.40;;
21192;SDS011;10754;51.106;7.164;2023-06-22T08:49:28;4.18;;;3.88;;
21192;SDS011;10754;51.106;7.164;2023-06-22T08:51:54;4.65;;;4.25;;
21192;SDS011;10754;51.106;7.164;2023-06-22T08:54:21;4.30;;;4.00;;
21192;SDS011;10754;51.106;7.164;2023-06-22T08:56:47;4.45;;;4.10;;
21192;SDS011;10754;51.106;7.164;2023-06-22T08:59:12;4.53;;;4.22;;
21192;SDS011;10754;51.106;7.164;2023-06-22T09:01:38;5.25;;;4.20;;
21192;SDS011;10754;51.106;7.164;2023-06-22T09:04:03;4.30;;;4.00;;
21192;SDS011;10754;51.106;7.164;2023-06-22T09:06:31;4.60;;;4.28;;
21192;SDS011;10754;51.106;7.164;2023-06-22T09:08:56;4.15;;;3.78;;
21192;SDS011;10754;51.106;7.164;2023-06-22T09:11:24;4.80;;;4.45;;
21192;SDS011;10754;51.106;7.164;2023-06-22T09:13:50;4.50;;;4.20;;
21192;SDS011;10754;51.106;7.164;2023-06-22T09:16:17;4.85;;;4.47;;
21192;SDS011;10754;51.106;7.164;2023-06-22T09:18:45;4.38;;;4.07;;
21192;SDS011;10754;51.106;7.164;2023-06-22T09:21:12;4.50;;;4.10;;
21192;SDS011;10754;51.106;7.164;2023-06-22T09:23:37;4.38;;;3.97;;
21192;SDS011;10754;51.106;7.164;2023-06-22T09:26:03;4.63;;;4.25;;
21192;SDS011;10754;51.106;7.164;2023-06-22T09:28:29;4.50;;;4.10;;
21192;SDS011;10754;51.106;7.164;2023-06-22T09:30:54;4.30;;;4.00;;
21192;SDS011;10754;51.106;7.164;2023-06-22T09:33:23;4.28;;;3.90;;
21192;SDS011;10754;51.106;7.164;2023-06-22T09:35:49;4.50;;;4.20;;
21192;SDS011;10754;51.106;7.164;2023-06-22T09:38:15;4.88;;;4.13;;
21192;SDS011;10754;51.106;7.164;2023-06-22T09:40:41;4.05;;;3.75;;
21192;SDS011;10754;51.106;7.164;2023-06-22T09:43:07;4.40;;;4.10;;
21192;SDS011;10754;51.106;7.164;2023-06-22T09:45:32;4.38;;;4.05;;
21192;SDS011;10754;51.106;7.164;2023-06-22T09:47:58;4.05;;;3.65;;
21192;SDS011;10754;51.106;7.164;2023-06-22T09:50:23;4.65;;;4.25;;
21192;SDS011;10754;51.106;7.164;2023-06-22T09:52:49;3.67;;;3.42;;
21192;SDS011;10754;51.106;7.164;2023-06-22T09:55:19;4.00;;;3.70;;
21192;SDS011;10754;51.106;7.164;2023-06-22T09:57:45;3.92;;;3.65;;
21192;SDS011;10754;51.106;7.164;2023-06-22T10:00:11;3.72;;;3.42;;
21192;SDS011;10754;51.106;7.164;2023-06-22T10:02:43;4.00;;;3.70;;
21192;SDS011;10754;51.106;7.164;2023-06-22T10:05:09;4.40;;;4.10;;
21192;SDS011;10754;51.106;7.164;2023-06-22T10:07:35;3.65;;;3.38;;
21192;SDS011;10754;51.106;7.164;2023-06-22T10:10:05;3.92;;;3.63;;
21192;SDS011;10754;51.106;7.164;2023-06-22T10:12:31;4.47;;;4.07;;
21192;SDS011;10754;51.106;7.164;2023-06-22T10:14:57;3.78;;;3.47;;
21192;SDS011;10754;51.106;7.164;2023-06-22T10:17:22;3.90;;;3.60;;
21192;SDS011;10754;51.106;7.164;2023-06-22T10:19:48;4.28;;;3.88;;
21192;SDS011;10754;51.106;7.164;2023-06-22T10:22:13;4.07;;;3.78;;
21192;SDS011;10754;51.106;7.164;2023-06-22T10:24:38;3.72;;;3.42;;
21192;SDS011;10754;51.106;7.164;2023-06-22T10:27:09;3.88;;;3.58;;
21192;SDS011;10754;51.106;7.164;2023-06-22T10:29:38;5.00;;;4.00;;
21192;SDS011;10754;51.106;7.164;2023-06-22T10:32:04;4.40;;;4.10;;
21192;SDS011;10754;51.106;7.164;2023-06-22T10:34:30;5.90;;;4.55;;
21192;SDS011;10754;51.106;7.164;2023-06-22T10:36:55;4.55;;;4.22;;
21192;SDS011;10754;51.106;7.164;2023-06-22T10:39:21;5.47;;;4.82;;
21192;SDS011;10754;51.106;7.164;2023-06-22T10:41:46;4.65;;;4.28;;
21192;SDS011;10754;51.106;7.164;2023-06-22T10:44:12;4.82;;;4.38;;
21192;SDS011;10754;51.106;7.164;2023-06-22T10:46:38;5.78;;;4.97;;
21192;SDS011;10754;51.106;7.164;2023-06-22T10:49:04;5.70;;;4.90;;
21192;SDS011;10754;51.106;7.164;2023-06-22T10:51:29;6.18;;;5.43;;
21192;SDS011;10754;51.106;7.164;2023-06-22T10:53:56;14.20;;;8.30;;
21192;SDS011;10754;51.106;7.164;2023-06-22T10:56:22;11.13;;;7.70;;
21192;SDS011;10754;51.106;7.164;2023-06-22T10:58:47;6.93;;;5.60;;
21192;SDS011;10754;51.106;7.164;2023-06-22T11:01:13;11.20;;;7.05;;
21192;SDS011;10754;51.106;7.164;2023-06-22T11:03:39;11.73;;;7.35;;
21192;SDS011;10754;51.106;7.164;2023-06-22T11:06:04;12.10;;;7.70;;
21192;SDS011;10754;51.106;7.164;2023-06-22T11:08:30;13.05;;;9.43;;
21192;SDS011;10754;51.106;7.164;2023-06-22T11:10:55;8.65;;;7.72;;
21192;SDS011;10754;51.106;7.164;2023-06-22T11:13:21;11.23;;;7.45;;
21192;SDS011;10754;51.106;7.164;2023-06-22T11:15:46;7.68;;;6.82;;
21192;SDS011;10754;51.106;7.164;2023-06-22T11:18:12;11.27;;;6.93;;
21192;SDS011;10754;51.106;7.164;2023-06-22T11:20:37;7.45;;;6.70;;
21192;SDS011;10754;51.106;7.164;2023-06-22T11:23:06;7.10;;;6.30;;
21192;SDS011;10754;51.106;7.164;2023-06-22T11:25:31;7.45;;;6.78;;
21192;SDS011;10754;51.106;7.164;2023-06-22T11:27:59;7.85;;;6.80;;
21192;SDS011;10754;51.106;7.164;2023-06-22T11:30:26;7.10;;;6.50;;
21192;SDS011;10754;51.106;7.164;2023-06-22T11:32:52;8.45;;;6.68;;
21192;SDS011;10754;51.106;7.164;2023-06-22T11:35:17;9.65;;;6.82;;
21192;SDS011;10754;51.106;7.164;2023-06-22T11:37:43;8.93;;;7.38;;
21192;SDS011;10754;51.106;7.164;2023-06-22T11:40:09;7.05;;;6.55;;
21192;SDS011;10754;51.106;7.164;2023-06-22T11:42:35;7.43;;;6.80;;
21192;SDS011;10754;51.106;7.164;2023-06-22T11:45:00;8.88;;;7.32;;
21192;SDS011;10754;51.106;7.164;2023-06-22T11:47:26;8.02;;;7.28;;
21192;SDS011;10754;51.106;7.164;2023-06-22T11:49:52;8.85;;;7.20;;
21192;SDS011;10754;51.106;7.164;2023-06-22T11:52:18;7.30;;;6.60;;
21192;SDS011;10754;51.106;7.164;2023-06-22T11:54:44;8.50;;;6.72;;
21192;SDS011;10754;51.106;7.164;2023-06-22T11:57:10;6.90;;;6.35;;
21192;SDS011;10754;51.106;7.164;2023-06-22T11:59:36;6.35;;;5.70;;
21192;SDS011;10754;51.106;7.164;2023-06-22T12:02:01;6.20;;;5.70;;
21192;SDS011;10754;51.106;7.164;2023-06-22T12:04:28;5.75;;;5.03;;
21192;SDS011;10754;51.106;7.164;2023-06-22T12:06:53;5.75;;;5.13;;
21192;SDS011;10754;51.106;7.164;2023-06-22T12:09:19;5.30;;;4.90;;
21192;SDS011;10754;51.106;7.164;2023-06-22T12:11:44;5.70;;;5.30;;
21192;SDS011;10754;51.106;7.164;2023-06-22T12:14:10;5.50;;;5.10;;
21192;SDS011;10754;51.106;7.164;2023-06-22T12:16:35;5.45;;;4.95;;
21192;SDS011;10754;51.106;7.164;2023-06-22T12:19:01;5.65;;;5.25;;
21192;SDS011;10754;51.106;7.164;2023-06-22T12:21:26;6.70;;;6.10;;
21192;SDS011;10754;51.106;7.164;2023-06-22T12:23:53;6.38;;;5.70;;
21192;SDS011;10754;51.106;7.164;2023-06-22T12:26:18;5.72;;;5.22;;
21192;SDS011;10754;51.106;7.164;2023-06-22T12:28:44;5.97;;;5.47;;
21192;SDS011;10754;51.106;7.164;2023-06-22T12:31:09;5.60;;;5.10;;
21192;SDS011;10754;51.106;7.164;2023-06-22T12:33:35;5.72;;;5.22;;
21192;SDS011;10754;51.106;7.164;2023-06-22T12:36:00;5.82;;;5.32;;
21192;SDS011;10754;51.106;7.164;2023-06-22T12:38:26;5.57;;;5.18;;
21192;SDS011;10754;51.106;7.164;2023-06-22T12:40:52;5.30;;;4.90;;
21192;SDS011;10754;51.106;7.164;2023-06-22T12:43:18;5.18;;;4.78;;
21192;SDS011;10754;51.106;7.164;2023-06-22T12:45:43;4.78;;;4.47;;
21192;SDS011;10754;51.106;7.164;2023-06-22T12:48:09;4.60;;;4.28;;
21192;SDS011;10754;51.106;7.164;2023-06-22T12:50:34;4.80;;;4.40;;
21192;SDS011;10754;51.106;7.164;2023-06-22T12:53:00;4.70;;;4.30;;
21192;SDS011;10754;51.106;7.164;2023-06-22T12:55:27;4.75;;;4.25;;
21192;SDS011;10754;51.106;7.164;2023-06-22T12:57:53;4.50;;;4.10;;
21192;SDS011;10754;51.106;7.164;2023-06-22T13:00:18;4.57;;;4.18;;
21192;SDS011;10754;51.106;7.164;2023-06-22T13:02:44;4.10;;;3.80;;
21192;SDS011;10754;51.106;7.164;2023-06-22T13:05:10;4.30;;;4.00;;
21192;SDS011;10754;51.106;7.164;2023-06-22T13:07:35;4.28;;;3.97;;
21192;SDS011;10754;51.106;7.164;2023-06-22T13:10:01;3.45;;;3.15;;
21192;SDS011;10754;51.106;7.164;2023-06-22T13:12:27;3.67;;;3.38;;
21192;SDS011;10754;51.106;7.164;2023-06-22T13:14:52;2.90;;;2.60;;
21192;SDS011;10754;51.106;7.164;2023-06-22T13:17:18;2.75;;;2.55;;
21192;SDS011;10754;51.106;7.164;2023-06-22T13:19:43;3.10;;;2.80;;
21192;SDS011;10754;51.106;7.164;2023-06-22T13:24:57;2.45;;;2.25;;
21192;SDS011;10754;51.106;7.164;2023-06-22T13:27:24;2.65;;;2.45;;
21192;SDS011;10754;51.106;7.164;2023-06-22T13:29:50;3.25;;;2.95;;
21192;SDS011;10754;51.106;7.164;2023-06-22T13:32:15;2.60;;;2.40;;
21192;SDS011;10754;51.106;7.164;2023-06-22T13:34:41;3.05;;;2.85;;
21192;SDS011;10754;51.106;7.164;2023-06-22T13:37:07;3.28;;;3.08;;
21192;SDS011;10754;51.106;7.164;2023-06-22T13:39:33;4.25;;;2.95;;
21192;SDS011;10754;51.106;7.164;2023-06-22T13:41:58;3.10;;;2.90;;
21192;SDS011;10754;51.106;7.164;2023-06-22T13:44:24;3.40;;;3.20;;
21192;SDS011;10754;51.106;7.164;2023-06-22T13:46:53;3.90;;;3.00;;
21192;SDS011;10754;51.106;7.164;2023-06-22T13:49:22;3.45;;;3.25;;
21192;SDS011;10754;51.106;7.164;2023-06-22T13:51:47;3.13;;;2.92;;
21192;SDS011;10754;51.106;7.164;2023-06-22T13:54:13;4.15;;;3.22;;
21192;SDS011;10754;51.106;7.164;2023-06-22T13:56:39;3.17;;;2.88;;
21192;SDS011;10754;51.106;7.164;2023-06-22T13:59:05;2.83;;;2.63;;
21192;SDS011;10754;51.106;7.164;2023-06-22T14:01:32;3.05;;;2.70;;
21192;SDS011;10754;51.106;7.164;2023-06-22T14:03:57;2.58;;;2.40;;
21192;SDS011;10754;51.106;7.164;2023-06-22T14:06:23;2.85;;;2.63;;
21192;SDS011;10754;51.106;7.164;2023-06-22T14:08:49;2.90;;;2.70;;
21192;SDS011;10754;51.106;7.164;2023-06-22T14:11:15;3.20;;;2.90;;
21192;SDS011;10754;51.106;7.164;2023-06-22T14:13:41;2.90;;;2.58;;
21192;SDS011;10754;51.106;7.164;2023-06-22T14:16:07;2.70;;;2.50;;
21192;SDS011;10754;51.106;7.164;2023-06-22T14:18:33;2.38;;;2.20;;
21192;SDS011;10754;51.106;7.164;2023-06-22T14:20:58;2.13;;;2.03;;
21192;SDS011;10754;51.106;7.164;2023-06-22T14:23:24;2.72;;;1.90;;
21192;SDS011;10754;51.106;7.164;2023-06-22T14:25:50;2.00;;;1.90;;
21192;SDS011;10754;51.106;7.164;2023-06-22T14:28:15;2.40;;;2.20;;
21192;SDS011;10754;51.106;7.164;2023-06-22T14:30:41;2.10;;;2.00;;
21192;SDS011;10754;51.106;7.164;2023-06-22T14:33:07;2.55;;;1.95;;
21192;SDS011;10754;51.106;7.164;2023-06-22T14:35:32;2.38;;;2.17;;
21192;SDS011;10754;51.106;7.164;2023-06-22T14:37:58;2.78;;;2.08;;
21192;SDS011;10754;51.106;7.164;2023-06-22T14:40:23;2.30;;;2.15;;
21192;SDS011;10754;51.106;7.164;2023-06-22T14:42:49;2.78;;;2.58;;
21192;SDS011;10754;51.106;7.164;2023-06-22T14:45:14;3.72;;;2.70;;
21192;SDS011;10754;51.106;7.164;2023-06-22T14:47:40;2.67;;;2.47;;
21192;SDS011;10754;51.106;7.164;2023-06-22T14:50:05;3.53;;;3.28;;